sensor_id;sensor_type;location;lat;lon;timestamp;pressure;altitude;pressure_sealevel;temperature;humidity
72061;BME280;59925;52.136;5.420;2023-03-21T00:00:38;101792.91;;;8.87;100.00
72061;BME280;59925;52.136;5.420;2023-03-21T00:03:05;101791.28;;;8.86;100.00
72061;BME280;59925;52.136;5.420;2023-03-21T00:05:32;101790.22;;;8.87;100.00
72061;BME280;59925;52.136;5.420;2023-03-21T00:07:58;101780.56;;;8.86;100.00
72061;BME280;59925;52.136;5.420;2023-03-21T00:10:27;101787.56;;;8.87;100.00
72061;BME280;59925;52.136;5.420;2023-03-21T00:13:08;101789.41;;;8.87;100.00
72061;BME280;59925;52.136;5.420;2023-03-21T00:15:38;101787.56;;;8.87;100.00
72061;BME280;59925;52.136;5.420;2023-03-21T00:18:29;101787.81;;;8.86;100.00
72061;BME280;59925;52.136;5.420;2023-03-21T00:21:02;101786.16;;;8.85;100.00
72061;BME280;59925;52.136;5.420;2023-03-21T00:23:49;101779.78;;;8.86;100.00
72061;BME280;59925;52.136;5.420;2023-03-21T00:26:16;101783.50;;;8.85;100.00
72061;BME280;59925;52.136;5.420;2023-03-21T00:28:43;101778.94;;;8.85;100.00
72061;BME280;59925;52.136;5.420;2023-03-21T00:31:09;101785.34;;;8.84;100.00
72061;BME280;59925;52.136;5.420;2023-03-21T00:33:36;101780.00;;;8.84;100.00
72061;BME280;59925;52.136;5.420;2023-03-21T00:36:05;101778.16;;;8.85;100.00
72061;BME280;59925;52.136;5.420;2023-03-21T00:38:33;101781.03;;;8.83;100.00
72061;BME280;59925;52.136;5.420;2023-03-21T00:41:06;101782.09;;;8.82;100.00
72061;BME280;59925;52.136;5.420;2023-03-21T00:43:46;101772.22;;;8.83;100.00
72061;BME280;59925;52.136;5.420;2023-03-21T00:46:13;101776.16;;;8.80;100.00
72061;BME280;59925;52.136;5.420;2023-03-21T00:48:39;101771.63;;;8.81;100.00
72061;BME280;59925;52.136;5.420;2023-03-21T00:51:21;101771.03;;;8.79;100.00
72061;BME280;59925;52.136;5.420;2023-03-21T00:53:56;101767.00;;;8.76;100.00
72061;BME280;59925;52.136;5.420;2023-03-21T00:56:23;101753.38;;;8.78;100.00
72061;BME280;59925;52.136;5.420;2023-03-21T00:58:49;101760.00;;;8.75;100.00
72061;BME280;59925;52.136;5.420;2023-03-21T01:01:16;101754.88;;;8.73;100.00
72061;BME280;59925;52.136;5.420;2023-03-21T01:03:43;101750.63;;;8.72;100.00
72061;BME280;59925;52.136;5.420;2023-03-21T01:06:17;101749.78;;;8.72;100.00
72061;BME280;59925;52.136;5.420;2023-03-21T01:08:46;101747.34;;;8.70;100.00
72061;BME280;59925;52.136;5.420;2023-03-21T01:11:22;101735.84;;;8.70;100.00
72061;BME280;59925;52.136;5.420;2023-03-21T01:13:50;101740.13;;;8.71;100.00
72061;BME280;59925;52.136;5.420;2023-03-21T01:16:30;101738.75;;;8.68;100.00
72061;BME280;59925;52.136;5.420;2023-03-21T01:18:57;101733.41;;;8.68;100.00
72061;BME280;59925;52.136;5.420;2023-03-21T01:21:23;101728.84;;;8.69;100.00
72061;BME280;59925;52.136;5.420;2023-03-21T01:23:50;101727.00;;;8.69;100.00
72061;BME280;59925;52.136;5.420;2023-03-21T01:26:17;101728.63;;;8.70;100.00
72061;BME280;59925;52.136;5.420;2023-03-21T01:28:44;101728.63;;;8.70;100.00
72061;BME280;59925;52.136;5.420;2023-03-21T01:31:13;101724.34;;;8.69;100.00
72061;BME280;59925;52.136;5.420;2023-03-21T01:33:40;101724.34;;;8.69;100.00
72061;BME280;59925;52.136;5.420;2023-03-21T01:36:10;101727.81;;;8.70;100.00
72061;BME280;59925;52.136;5.420;2023-03-21T01:38:41;101719.00;;;8.69;100.00
72061;BME280;59925;52.136;5.420;2023-03-21T01:41:17;101724.94;;;8.71;100.00
72061;BME280;59925;52.136;5.420;2023-03-21T01:43:45;101712.81;;;8.69;100.00
72061;BME280;59925;52.136;5.420;2023-03-21T01:48:53;101714.56;;;8.63;100.00
72061;BME280;59925;52.136;5.420;2023-03-21T01:51:23;101708.19;;;8.64;100.00
72061;BME280;59925;52.136;5.420;2023-03-21T01:53:52;101701.44;;;8.62;100.00
72061;BME280;59925;52.136;5.420;2023-03-21T01:56:25;101700.63;;;8.61;100.00
72061;BME280;59925;52.136;5.420;2023-03-21T01:58:58;101697.94;;;8.61;100.00
72061;BME280;59925;52.136;5.420;2023-03-21T02:01:29;101695.53;;;8.59;100.00
72061;BME280;59925;52.136;5.420;2023-03-21T02:04:00;101691.56;;;8.62;100.00
72061;BME280;59925;52.136;5.420;2023-03-21T02:06:37;101692.59;;;8.61;100.00
72061;BME280;59925;52.136;5.420;2023-03-21T02:09:10;101685.66;;;8.60;100.00
72061;BME280;59925;52.136;5.420;2023-03-21T02:11:38;101681.13;;;8.61;100.00
72061;BME280;59925;52.136;5.420;2023-03-21T02:14:05;101676.03;;;8.59;100.00
72061;BME280;59925;52.136;5.420;2023-03-21T02:16:47;101676.22;;;8.57;100.00
72061;BME280;59925;52.136;5.420;2023-03-21T02:36:11;101663.91;;;8.56;100.00
72061;BME280;59925;52.136;5.420;2023-03-21T02:41:46;101648.72;;;8.57;100.00
72061;BME280;59925;52.136;5.420;2023-03-21T02:44:26;101658.34;;;8.58;100.00
72061;BME280;59925;52.136;5.420;2023-03-21T02:47:00;101662.66;;;8.59;100.00
72061;BME280;59925;52.136;5.420;2023-03-21T02:52:11;101646.63;;;8.59;100.00
72061;BME280;59925;52.136;5.420;2023-03-21T02:54:48;101649.50;;;8.57;100.00
72061;BME280;59925;52.136;5.420;2023-03-21T02:57:18;101638.00;;;8.57;100.00
72061;BME280;59925;52.136;5.420;2023-03-21T02:59:47;101644.16;;;8.57;100.00
72061;BME280;59925;52.136;5.420;2023-03-21T03:02:26;101645.00;;;8.58;100.00
72061;BME280;59925;52.136;5.420;2023-03-21T03:04:53;101632.41;;;8.58;100.00
72061;BME280;59925;52.136;5.420;2023-03-21T03:07:52;101633.25;;;8.59;100.00
72061;BME280;59925;52.136;5.420;2023-03-21T03:20:07;101637.78;;;8.58;100.00
72061;BME280;59925;52.136;5.420;2023-03-21T03:25:31;101632.41;;;8.58;100.00
72061;BME280;59925;52.136;5.420;2023-03-21T03:28:08;101632.66;;;8.57;100.00
72061;BME280;59925;52.136;5.420;2023-03-21T03:30:37;101635.34;;;8.57;100.00
72061;BME280;59925;52.136;5.420;2023-03-21T03:33:15;101626.75;;;8.55;100.00
72061;BME280;59925;52.136;5.420;2023-03-21T03:35:44;101633.72;;;8.56;100.00
72061;BME280;59925;52.136;5.420;2023-03-21T03:38:28;101629.41;;;8.55;100.00
72061;BME280;59925;52.136;5.420;2023-03-21T03:40:58;101632.88;;;8.55;100.00
72061;BME280;59925;52.136;5.420;2023-03-21T03:43:39;101631.03;;;8.56;100.00
72061;BME280;59925;52.136;5.420;2023-03-21T03:46:14;101625.69;;;8.56;100.00
72061;BME280;59925;52.136;5.420;2023-03-21T03:48:53;101623.81;;;8.56;100.00
72061;BME280;59925;52.136;5.420;2023-03-21T03:51:35;101623.81;;;8.56;100.00
72061;BME280;59925;52.136;5.420;2023-03-21T03:54:07;101619.31;;;8.57;100.00
72061;BME280;59925;52.136;5.420;2023-03-21T03:56:38;101621.16;;;8.56;100.00
72061;BME280;59925;52.136;5.420;2023-03-21T03:59:05;101619.78;;;8.54;100.00
72061;BME280;59925;52.136;5.420;2023-03-21T04:01:33;101617.09;;;8.54;100.00
72061;BME280;59925;52.136;5.420;2023-03-21T04:04:00;101610.97;;;8.53;100.00
72061;BME280;59925;52.136;5.420;2023-03-21T04:06:38;101616.31;;;8.53;100.00
72061;BME280;59925;52.136;5.420;2023-03-21T04:09:05;101613.38;;;8.55;100.00
72061;BME280;59925;52.136;5.420;2023-03-21T04:11:46;101613.63;;;8.53;100.00
72061;BME280;59925;52.136;5.420;2023-03-21T04:14:13;101611.19;;;8.52;100.00
72061;BME280;59925;52.136;5.420;2023-03-21T04:16:39;101610.13;;;8.53;100.00
72061;BME280;59925;52.136;5.420;2023-03-21T04:19:06;101606.66;;;8.52;100.00
72061;BME280;59925;52.136;5.420;2023-03-21T04:21:32;101605.03;;;8.51;100.00
72061;BME280;59925;52.136;5.420;2023-03-21T04:23:59;101599.69;;;8.51;100.00
72061;BME280;59925;52.136;5.420;2023-03-21T04:26:26;101606.88;;;8.51;100.00
72061;BME280;59925;52.136;5.420;2023-03-21T04:28:58;101607.13;;;8.49;100.00
72061;BME280;59925;52.136;5.420;2023-03-21T04:31:29;101613.06;;;8.51;100.00
72061;BME280;59925;52.136;5.420;2023-03-21T04:34:04;101606.06;;;8.50;100.00
72061;BME280;59925;52.136;5.420;2023-03-21T04:36:35;101601.53;;;8.51;100.00
72061;BME280;59925;52.136;5.420;2023-03-21T04:39:20;101605.81;;;8.52;100.00
72061;BME280;59925;52.136;5.420;2023-03-21T04:41:47;101601.53;;;8.51;100.00
72061;BME280;59925;52.136;5.420;2023-03-21T04:44:16;101600.94;;;8.49;100.00
72061;BME280;59925;52.136;5.420;2023-03-21T04:46:42;101596.44;;;8.49;100.00
72061;BME280;59925;52.136;5.420;2023-03-21T04:49:09;101588.41;;;8.49;100.00
72061;BME280;59925;52.136;5.420;2023-03-21T04:51:36;101596.66;;;8.48;100.00
72061;BME280;59925;52.136;5.420;2023-03-21T04:54:03;101592.94;;;8.49;100.00
72061;BME280;59925;52.136;5.420;2023-03-21T04:56:30;101595.59;;;8.49;100.00
72061;BME280;59925;52.136;5.420;2023-03-21T04:58:59;101589.47;;;8.48;100.00
72061;BME280;59925;52.136;5.420;2023-03-21T05:01:26;101585.13;;;8.47;100.00
72061;BME280;59925;52.136;5.420;2023-03-21T05:04:00;101594.44;;;8.44;100.00
72061;BME280;59925;52.136;5.420;2023-03-21T05:06:27;101590.72;;;8.46;100.00
72061;BME280;59925;52.136;5.420;2023-03-21T05:08:55;101595.50;;;8.43;100.00
72061;BME280;59925;52.136;5.420;2023-03-21T05:11:26;101593.03;;;8.42;100.00
72061;BME280;59925;52.136;5.420;2023-03-21T05:13:53;101594.09;;;8.41;100.00
72061;BME280;59925;52.136;5.420;2023-03-21T05:16:19;101598.63;;;8.40;100.00
72061;BME280;59925;52.136;5.420;2023-03-21T05:18:50;101602.34;;;8.39;100.00
72061;BME280;59925;52.136;5.420;2023-03-21T05:21:19;101595.38;;;8.38;100.00
72061;BME280;59925;52.136;5.420;2023-03-21T05:23:46;101593.75;;;8.37;100.00
72061;BME280;59925;52.136;5.420;2023-03-21T05:26:21;101593.16;;;8.35;100.00
72061;BME280;59925;52.136;5.420;2023-03-21T05:28:48;101597.47;;;8.36;100.00
72061;BME280;59925;52.136;5.420;2023-03-21T05:31:16;101578.75;;;8.36;100.00
72061;BME280;59925;52.136;5.420;2023-03-21T05:33:44;101587.81;;;8.35;100.00
72061;BME280;59925;52.136;5.420;2023-03-21T05:36:11;101580.63;;;8.36;100.00
72061;BME280;59925;52.136;5.420;2023-03-21T05:38:38;101582.72;;;8.34;100.00
72061;BME280;59925;52.136;5.420;2023-03-21T05:41:12;101577.38;;;8.34;100.00
72061;BME280;59925;52.136;5.420;2023-03-21T05:43:39;101578.75;;;8.36;100.00
72061;BME280;59925;52.136;5.420;2023-03-21T05:46:06;101580.63;;;8.36;100.00
72061;BME280;59925;52.136;5.420;2023-03-21T05:48:33;101585.72;;;8.37;100.00
72061;BME280;59925;52.136;5.420;2023-03-21T05:51:00;101590.28;;;8.37;100.00
72061;BME280;59925;52.136;5.420;2023-03-21T05:53:27;101577.13;;;8.35;100.00
72061;BME280;59925;52.136;5.420;2023-03-21T05:55:53;101578.75;;;8.36;100.00
72061;BME280;59925;52.136;5.420;2023-03-21T05:58:20;101571.00;;;8.35;100.00
72061;BME280;59925;52.136;5.420;2023-03-21T06:00:46;101573.41;;;8.36;100.00
72061;BME280;59925;52.136;5.420;2023-03-21T06:03:13;101568.06;;;8.36;100.00
72061;BME280;59925;52.136;5.420;2023-03-21T06:05:39;101575.63;;;8.39;100.00
72061;BME280;59925;52.136;5.420;2023-03-21T06:08:06;101572.94;;;8.39;100.00
72061;BME280;59925;52.136;5.420;2023-03-21T06:10:32;101572.94;;;8.39;100.00
72061;BME280;59925;52.136;5.420;2023-03-21T06:12:59;101571.31;;;8.38;100.00
72061;BME280;59925;52.136;5.420;2023-03-21T06:15:25;101572.94;;;8.39;100.00
72061;BME280;59925;52.136;5.420;2023-03-21T06:17:52;101572.38;;;8.37;100.00
72061;BME280;59925;52.136;5.420;2023-03-21T06:20:18;101576.44;;;8.40;100.00
72061;BME280;59925;52.136;5.420;2023-03-21T06:22:45;101575.38;;;8.41;100.00
72061;BME280;59925;52.136;5.420;2023-03-21T06:25:12;101569.22;;;8.40;100.00
72061;BME280;59925;52.136;5.420;2023-03-21T06:27:38;101575.63;;;8.39;100.00
72061;BME280;59925;52.136;5.420;2023-03-21T06:30:06;101567.59;;;8.39;100.00
72061;BME280;59925;52.136;5.420;2023-03-21T06:32:33;101564.69;;;8.41;100.00
72061;BME280;59925;52.136;5.420;2023-03-21T06:35:00;101567.94;;;8.43;100.00
72061;BME280;59925;52.136;5.420;2023-03-21T06:37:27;101572.03;;;8.46;100.00
72061;BME280;59925;52.136;5.420;2023-03-21T06:39:53;101572.81;;;8.46;100.00
72061;BME280;59925;52.136;5.420;2023-03-21T06:42:21;101579.78;;;8.47;100.00
72061;BME280;59925;52.136;5.420;2023-03-21T06:44:47;101575.84;;;8.50;100.00
72061;BME280;59925;52.136;5.420;2023-03-21T06:47:14;101580.41;;;8.49;100.00
72061;BME280;59925;52.136;5.420;2023-03-21T06:49:41;101584.13;;;8.48;100.00
72061;BME280;59925;52.136;5.420;2023-03-21T06:52:09;101578.78;;;8.48;100.00
72061;BME280;59925;52.136;5.420;2023-03-21T06:54:36;101580.16;;;8.51;100.00
72061;BME280;59925;52.136;5.420;2023-03-21T06:57:03;101581.31;;;8.55;100.00
72061;BME280;59925;52.136;5.420;2023-03-21T06:59:29;101574.09;;;8.55;100.00
72061;BME280;59925;52.136;5.420;2023-03-21T07:01:57;101577.91;;;8.59;100.00
72061;BME280;59925;52.136;5.420;2023-03-21T07:04:23;101571.53;;;8.61;100.00
72061;BME280;59925;52.136;5.420;2023-03-21T07:06:52;101569.44;;;8.63;100.00
72061;BME280;59925;52.136;5.420;2023-03-21T07:09:19;101577.22;;;8.64;100.00
72061;BME280;59925;52.136;5.420;2023-03-21T07:11:49;101574.31;;;8.66;100.00
72061;BME280;59925;52.136;5.420;2023-03-21T07:14:19;101573.81;;;8.69;100.00
72061;BME280;59925;52.136;5.420;2023-03-21T07:16:46;101580.78;;;8.70;100.00
72061;BME280;59925;52.136;5.420;2023-03-21T07:19:12;101579.25;;;8.74;100.00
72061;BME280;59925;52.136;5.420;2023-03-21T07:21:40;101583.78;;;8.73;100.00
72061;BME280;59925;52.136;5.420;2023-03-21T07:24:07;101584.38;;;8.76;100.00
72061;BME280;59925;52.136;5.420;2023-03-21T07:26:33;101583.91;;;8.79;100.00
72061;BME280;59925;52.136;5.420;2023-03-21T07:29:00;101590.28;;;8.78;100.00
72061;BME280;59925;52.136;5.420;2023-03-21T07:31:26;101585.28;;;8.81;99.94
72061;BME280;59925;52.136;5.420;2023-03-21T07:33:53;101596.88;;;8.87;99.74
72061;BME280;59925;52.136;5.420;2023-03-21T07:36:20;101587.25;;;8.86;99.84
72061;BME280;59925;52.136;5.420;2023-03-21T07:38:46;101584.56;;;8.86;99.55
72061;BME280;59925;52.136;5.420;2023-03-21T07:41:13;101585.38;;;8.86;99.64
72061;BME280;59925;52.136;5.420;2023-03-21T07:43:39;101579.22;;;8.86;99.53
72061;BME280;59925;52.136;5.420;2023-03-21T07:46:06;101582.44;;;8.88;99.61
72061;BME280;59925;52.136;5.420;2023-03-21T07:48:33;101575.00;;;8.90;99.82
72061;BME280;59925;52.136;5.420;2023-03-21T07:50:59;101573.38;;;8.89;99.53
72061;BME280;59925;52.136;5.420;2023-03-21T07:53:27;101570.22;;;8.92;99.37
72061;BME280;59925;52.136;5.420;2023-03-21T07:55:54;101566.50;;;8.93;99.26
72061;BME280;59925;52.136;5.420;2023-03-21T07:58:23;101557.19;;;8.96;99.23
72061;BME280;59925;52.136;5.420;2023-03-21T08:00:50;101557.28;;;9.01;99.48
72061;BME280;59925;52.136;5.420;2023-03-21T08:03:17;101554.94;;;9.04;99.37
72061;BME280;59925;52.136;5.420;2023-03-21T08:05:44;101556.09;;;9.09;99.36
72061;BME280;59925;52.136;5.420;2023-03-21T08:08:11;101551.31;;;9.11;99.38
72061;BME280;59925;52.136;5.420;2023-03-21T08:10:38;101547.59;;;9.12;99.32
72061;BME280;59925;52.136;5.420;2023-03-21T08:13:04;101551.88;;;9.13;99.11
72061;BME280;59925;52.136;5.420;2023-03-21T08:15:31;101553.81;;;9.17;99.11
72061;BME280;59925;52.136;5.420;2023-03-21T08:17:59;101554.63;;;9.18;99.15
72061;BME280;59925;52.136;5.420;2023-03-21T08:20:26;101559.97;;;9.18;99.01
72061;BME280;59925;52.136;5.420;2023-03-21T08:22:53;101551.22;;;9.23;98.60
72061;BME280;59925;52.136;5.420;2023-03-21T08:25:21;101547.81;;;9.27;98.90
72061;BME280;59925;52.136;5.420;2023-03-21T08:27:48;101551.63;;;9.31;98.48
72061;BME280;59925;52.136;5.420;2023-03-21T08:30:21;101542.88;;;9.36;98.67
72061;BME280;59925;52.136;5.420;2023-03-21T08:32:47;101538.91;;;9.39;98.70
72061;BME280;59925;52.136;5.420;2023-03-21T08:35:16;101543.75;;;9.42;98.78
72061;BME280;59925;52.136;5.420;2023-03-21T08:37:44;101534.69;;;9.43;98.66
72061;BME280;59925;52.136;5.420;2023-03-21T08:40:13;101534.63;;;9.38;98.23
72061;BME280;59925;52.136;5.420;2023-03-21T08:42:41;101539.72;;;9.39;98.10
72061;BME280;59925;52.136;5.420;2023-03-21T08:45:09;101537.28;;;9.38;97.81
72061;BME280;59925;52.136;5.420;2023-03-21T08:47:36;101541.91;;;9.42;97.77
72061;BME280;59925;52.136;5.420;2023-03-21T08:50:05;101531.44;;;9.41;97.47
72061;BME280;59925;52.136;5.420;2023-03-21T08:52:32;101532.56;;;9.45;97.34
72061;BME280;59925;52.136;5.420;2023-03-21T08:54:58;101530.22;;;9.48;97.61
72061;BME280;59925;52.136;5.420;2023-03-21T08:57:28;101520.56;;;9.47;96.79
72061;BME280;59925;52.136;5.420;2023-03-21T08:59:54;101517.97;;;9.53;96.92
72061;BME280;59925;52.136;5.420;2023-03-21T09:02:21;101513.00;;;9.61;96.61
72061;BME280;59925;52.136;5.420;2023-03-21T09:04:48;101507.97;;;9.65;96.37
72061;BME280;59925;52.136;5.420;2023-03-21T09:07:14;101507.78;;;9.72;95.98
72061;BME280;59925;52.136;5.420;2023-03-21T09:09:43;101509.41;;;9.73;96.05
72061;BME280;59925;52.136;5.420;2023-03-21T09:12:13;101505.94;;;9.72;95.70
72061;BME280;59925;52.136;5.420;2023-03-21T09:14:39;101497.66;;;9.74;95.45
72061;BME280;59925;52.136;5.420;2023-03-21T09:17:06;101493.34;;;9.73;95.34
72061;BME280;59925;52.136;5.420;2023-03-21T09:19:33;101492.28;;;9.74;95.44
72061;BME280;59925;52.136;5.420;2023-03-21T09:22:00;101497.72;;;9.79;95.23
72061;BME280;59925;52.136;5.420;2023-03-21T09:24:28;101494.03;;;9.85;95.30
72061;BME280;59925;52.136;5.420;2023-03-21T09:26:55;101488.13;;;9.83;95.00
72061;BME280;59925;52.136;5.420;2023-03-21T09:29:22;101478.72;;;9.80;94.56
72061;BME280;59925;52.136;5.420;2023-03-21T09:31:49;101485.44;;;9.83;93.90
72061;BME280;59925;52.136;5.420;2023-03-21T09:34:18;101475.13;;;9.92;93.99
72061;BME280;59925;52.136;5.420;2023-03-21T09:36:45;101476.63;;;10.05;93.84
72061;BME280;59925;52.136;5.420;2023-03-21T09:39:13;101472.06;;;10.05;93.88
72061;BME280;59925;52.136;5.420;2023-03-21T09:42:12;101480.41;;;10.09;93.97
72061;BME280;59925;52.136;5.420;2023-03-21T09:45:00;101464.31;;;10.09;93.23
72061;BME280;59925;52.136;5.420;2023-03-21T09:47:34;101468.19;;;10.18;93.31
72061;BME280;59925;52.136;5.420;2023-03-21T09:50:14;101467.94;;;10.20;93.53
72061;BME280;59925;52.136;5.420;2023-03-21T09:52:50;101470.16;;;10.28;92.94
72061;BME280;59925;52.136;5.420;2023-03-21T09:55:21;101473.59;;;10.23;92.87
72061;BME280;59925;52.136;5.420;2023-03-21T09:58:19;101471.47;;;10.25;93.06
72061;BME280;59925;52.136;5.420;2023-03-21T10:00:44;101466.97;;;10.31;92.76
72061;BME280;59925;52.136;5.420;2023-03-21T10:03:20;101457.72;;;10.39;92.70
72061;BME280;59925;52.136;5.420;2023-03-21T10:05:53;101463.13;;;10.44;92.84
72061;BME280;59925;52.136;5.420;2023-03-21T10:08:27;101457.78;;;10.44;92.06
72061;BME280;59925;52.136;5.420;2023-03-21T10:11:00;101463.94;;;10.45;91.85
72061;BME280;59925;52.136;5.420;2023-03-21T10:13:32;101452.41;;;10.44;91.12
72061;BME280;59925;52.136;5.420;2023-03-21T10:16:03;101462.59;;;10.47;90.65
72061;BME280;59925;52.136;5.420;2023-03-21T10:18:36;101460.00;;;10.52;90.80
72061;BME280;59925;52.136;5.420;2023-03-21T10:21:05;101472.94;;;10.61;90.63
72061;BME280;59925;52.136;5.420;2023-03-21T10:23:31;101468.97;;;10.68;90.30
72061;BME280;59925;52.136;5.420;2023-03-21T10:26:00;101468.19;;;10.68;90.03
72061;BME280;59925;52.136;5.420;2023-03-21T10:28:34;101451.63;;;10.76;89.73
72061;BME280;59925;52.136;5.420;2023-03-21T10:31:21;101451.47;;;10.88;89.50
72061;BME280;59925;52.136;5.420;2023-03-21T10:33:52;101456.81;;;10.88;88.99
72061;BME280;59925;52.136;5.420;2023-03-21T10:36:22;101449.06;;;10.92;88.69
72061;BME280;59925;52.136;5.420;2023-03-21T10:41:23;101434.09;;;10.96;87.22
72061;BME280;59925;52.136;5.420;2023-03-21T10:46:34;101426.38;;;11.10;87.53
72061;BME280;59925;52.136;5.420;2023-03-21T10:49:02;101422.38;;;11.12;86.38
72061;BME280;59925;52.136;5.420;2023-03-21T10:51:35;101425.13;;;11.23;86.38
72061;BME280;59925;52.136;5.420;2023-03-21T10:54:13;101431.34;;;11.33;85.84
72061;BME280;59925;52.136;5.420;2023-03-21T10:57:06;101427.41;;;11.52;85.11
72061;BME280;59925;52.136;5.420;2023-03-21T10:59:37;101443.53;;;11.46;84.34
72061;BME280;59925;52.136;5.420;2023-03-21T11:02:05;101441.34;;;11.43;84.24
72061;BME280;59925;52.136;5.420;2023-03-21T11:04:42;101440.78;;;11.41;83.73
72061;BME280;59925;52.136;5.420;2023-03-21T11:07:12;101430.09;;;11.46;84.31
72061;BME280;59925;52.136;5.420;2023-03-21T11:12:11;101426.13;;;11.59;83.57
72061;BME280;59925;52.136;5.420;2023-03-21T11:14:43;101428.00;;;11.59;83.88
72061;BME280;59925;52.136;5.420;2023-03-21T11:19:56;101426.22;;;11.80;83.45
72061;BME280;59925;52.136;5.420;2023-03-21T11:22:27;101437.50;;;11.82;82.67
72061;BME280;59925;52.136;5.420;2023-03-21T11:25:00;101453.59;;;11.77;81.91
72061;BME280;59925;52.136;5.420;2023-03-21T11:27:28;101431.59;;;11.85;82.48
72061;BME280;59925;52.136;5.420;2023-03-21T11:29:57;101423.09;;;12.04;82.28
72061;BME280;59925;52.136;5.420;2023-03-21T11:32:35;101431.19;;;12.19;81.39
72061;BME280;59925;52.136;5.420;2023-03-21T11:35:18;101420.75;;;12.38;81.24
72061;BME280;59925;52.136;5.420;2023-03-21T11:37:51;101418.59;;;12.51;80.66
72061;BME280;59925;52.136;5.420;2023-03-21T11:40:29;101428.84;;;12.54;80.79
72061;BME280;59925;52.136;5.420;2023-03-21T11:45:32;101398.97;;;12.66;80.40
72061;BME280;59925;52.136;5.420;2023-03-21T11:48:01;101400.03;;;12.70;80.48
72061;BME280;59925;52.136;5.420;2023-03-21T11:50:44;101396.56;;;12.64;79.66
72061;BME280;59925;52.136;5.420;2023-03-21T11:53:33;101393.84;;;12.59;79.22
72061;BME280;59925;52.136;5.420;2023-03-21T11:56:28;101396.28;;;12.66;78.61
72061;BME280;59925;52.136;5.420;2023-03-21T11:59:25;101405.41;;;12.65;78.85
72061;BME280;59925;52.136;5.420;2023-03-21T12:05:27;101403.53;;;12.45;78.92
72061;BME280;59925;52.136;5.420;2023-03-21T12:08:04;101404.59;;;12.33;78.63
72061;BME280;59925;52.136;5.420;2023-03-21T12:10:53;101396.53;;;12.28;79.14
72061;BME280;59925;52.136;5.420;2023-03-21T12:16:51;101394.38;;;12.35;79.39
72061;BME280;59925;52.136;5.420;2023-03-21T12:19:42;101389.56;;;12.43;78.81
72061;BME280;59925;52.136;5.420;2023-03-21T12:24:53;101384.72;;;12.50;78.66
72061;BME280;59925;52.136;5.420;2023-03-21T12:30:32;101386.84;;;12.32;78.50
72061;BME280;59925;52.136;5.420;2023-03-21T12:41:23;101360.75;;;12.64;77.99
72061;BME280;59925;52.136;5.420;2023-03-21T12:43:57;101367.22;;;12.68;77.96
72061;BME280;59925;52.136;5.420;2023-03-21T12:51:41;101356.88;;;13.22;76.18
72061;BME280;59925;52.136;5.420;2023-03-21T12:56:55;101354.22;;;13.82;74.17
72061;BME280;59925;52.136;5.420;2023-03-21T13:07:41;101331.97;;;15.43;70.79
72061;BME280;59925;52.136;5.420;2023-03-21T13:10:17;101335.34;;;15.35;65.76
72061;BME280;59925;52.136;5.420;2023-03-21T13:20:57;101315.78;;;14.70;68.48
72061;BME280;59925;52.136;5.420;2023-03-21T13:23:36;101316.03;;;14.98;67.42
72061;BME280;59925;52.136;5.420;2023-03-21T13:26:08;101310.06;;;14.47;65.11
72061;BME280;59925;52.136;5.420;2023-03-21T13:28:38;101307.47;;;14.02;65.22
72061;BME280;59925;52.136;5.420;2023-03-21T13:31:19;101299.69;;;13.95;64.92
72061;BME280;59925;52.136;5.420;2023-03-21T13:33:52;101304.31;;;13.90;64.68
72061;BME280;59925;52.136;5.420;2023-03-21T13:36:25;101311.63;;;13.84;65.88
72061;BME280;59925;52.136;5.420;2023-03-21T13:38:58;101310.88;;;13.78;65.00
72061;BME280;59925;52.136;5.420;2023-03-21T13:41:34;101310.13;;;14.07;65.06
72061;BME280;59925;52.136;5.420;2023-03-21T13:56:49;101284.38;;;13.91;65.22
72061;BME280;59925;52.136;5.420;2023-03-21T14:04:27;101300.97;;;13.63;65.06
72061;BME280;59925;52.136;5.420;2023-03-21T14:07:28;101287.63;;;13.43;65.30
72061;BME280;59925;52.136;5.420;2023-03-21T14:10:00;101279.53;;;13.48;66.31
72061;BME280;59925;52.136;5.420;2023-03-21T14:12:39;101283.53;;;13.56;67.05
72061;BME280;59925;52.136;5.420;2023-03-21T14:15:13;101279.22;;;13.55;66.23
72061;BME280;59925;52.136;5.420;2023-03-21T14:17:55;101284.38;;;13.46;66.20
72061;BME280;59925;52.136;5.420;2023-03-21T14:20:31;101283.56;;;13.51;65.92
72061;BME280;59925;52.136;5.420;2023-03-21T14:22:58;101287.09;;;13.41;66.08
72061;BME280;59925;52.136;5.420;2023-03-21T14:25:32;101283.06;;;13.33;66.62
72061;BME280;59925;52.136;5.420;2023-03-21T14:28:16;101274.50;;;13.26;66.99
72061;BME280;59925;52.136;5.420;2023-03-21T14:30:44;101289.56;;;13.27;66.85
72061;BME280;59925;52.136;5.420;2023-03-21T14:33:19;101264.28;;;13.17;67.45
72061;BME280;59925;52.136;5.420;2023-03-21T14:35:48;101266.91;;;13.33;67.92
72061;BME280;59925;52.136;5.420;2023-03-21T14:38:20;101266.06;;;13.38;67.10
72061;BME280;59925;52.136;5.420;2023-03-21T14:40:49;101262.06;;;13.35;67.53
72061;BME280;59925;52.136;5.420;2023-03-21T14:43:18;101263.09;;;13.49;67.43
72061;BME280;59925;52.136;5.420;2023-03-21T14:45:50;101251.28;;;13.40;68.02
72061;BME280;59925;52.136;5.420;2023-03-21T14:48:28;101258.28;;;13.36;67.79
72061;BME280;59925;52.136;5.420;2023-03-21T14:50:56;101254.53;;;13.32;68.46
72061;BME280;59925;52.136;5.420;2023-03-21T14:53:29;101260.69;;;13.38;69.02
72061;BME280;59925;52.136;5.420;2023-03-21T14:56:23;101264.75;;;13.35;69.21
72061;BME280;59925;52.136;5.420;2023-03-21T14:58:51;101261.50;;;13.38;69.01
72061;BME280;59925;52.136;5.420;2023-03-21T15:01:29;101261.00;;;13.41;69.21
72061;BME280;59925;52.136;5.420;2023-03-21T15:03:59;101266.91;;;13.33;68.75
72061;BME280;59925;52.136;5.420;2023-03-21T15:06:26;101265.06;;;13.28;69.02